sensor_id;sensor_type;location;lat;lon;timestamp;P1;durP1;ratioP1;P2;durP2;ratioP2
5608;SDS011;2826;51.354;9.588;2023-02-18T00:01:23;26.20;;;7.47;;
5608;SDS011;2826;51.354;9.588;2023-02-18T00:03:51;14.63;;;7.43;;
5608;SDS011;2826;51.354;9.588;2023-02-18T00:06:18;18.63;;;7.33;;
5608;SDS011;2826;51.354;9.588;2023-02-18T00:08:47;25.67;;;7.53;;
5608;SDS011;2826;51.354;9.588;2023-02-18T00:11:16;24.90;;;7.80;;
5608;SDS011;2826;51.354;9.588;2023-02-18T00:13:48;21.77;;;8.37;;
5608;SDS011;2826;51.354;9.588;2023-02-18T00:16:15;19.60;;;8.63;;
5608;SDS011;2826;51.354;9.588;2023-02-18T00:18:42;26.77;;;9.57;;
5608;SDS011;2826;51.354;9.588;2023-02-18T00:21:08;23.90;;;9.93;;
5608;SDS011;2826;51.354;9.588;2023-02-18T00:23:35;24.80;;;10.03;;
5608;SDS011;2826;51.354;9.588;2023-02-18T00:26:03;24.07;;;10.60;;
5608;SDS011;2826;51.354;9.588;2023-02-18T00:28:32;24.30;;;9.60;;
5608;SDS011;2826;51.354;9.588;2023-02-18T00:31:04;27.27;;;11.03;;
5608;SDS011;2826;51.354;9.588;2023-02-18T00:33:31;16.97;;;9.30;;
5608;SDS011;2826;51.354;9.588;2023-02-18T00:36:00;21.90;;;10.33;;
5608;SDS011;2826;51.354;9.588;2023-02-18T00:38:27;26.73;;;11.47;;
5608;SDS011;2826;51.354;9.588;2023-02-18T00:40:54;25.77;;;11.03;;
5608;SDS011;2826;51.354;9.588;2023-02-18T00:43:21;23.73;;;10.47;;
5608;SDS011;2826;51.354;9.588;2023-02-18T00:45:49;31.80;;;12.47;;
5608;SDS011;2826;51.354;9.588;2023-02-18T00:48:15;24.30;;;10.20;;
5608;SDS011;2826;51.354;9.588;2023-02-18T00:50:43;24.87;;;9.47;;
5608;SDS011;2826;51.354;9.588;2023-02-18T00:53:10;20.53;;;10.20;;
5608;SDS011;2826;51.354;9.588;2023-02-18T00:55:37;21.40;;;9.43;;
5608;SDS011;2826;51.354;9.588;2023-02-18T00:58:04;16.57;;;8.80;;
5608;SDS011;2826;51.354;9.588;2023-02-18T01:00:31;23.33;;;10.40;;
5608;SDS011;2826;51.354;9.588;2023-02-18T01:02:58;23.70;;;9.27;;
5608;SDS011;2826;51.354;9.588;2023-02-18T01:05:25;21.03;;;9.27;;
5608;SDS011;2826;51.354;9.588;2023-02-18T01:07:52;16.07;;;8.87;;
5608;SDS011;2826;51.354;9.588;2023-02-18T01:10:18;16.60;;;8.93;;
5608;SDS011;2826;51.354;9.588;2023-02-18T01:12:45;17.67;;;7.97;;
5608;SDS011;2826;51.354;9.588;2023-02-18T01:15:13;15.63;;;8.90;;
5608;SDS011;2826;51.354;9.588;2023-02-18T01:17:40;15.10;;;8.30;;
5608;SDS011;2826;51.354;9.588;2023-02-18T01:20:08;19.00;;;8.80;;
5608;SDS011;2826;51.354;9.588;2023-02-18T01:22:36;10.63;;;6.33;;
5608;SDS011;2826;51.354;9.588;2023-02-18T01:25:06;18.00;;;9.30;;
5608;SDS011;2826;51.354;9.588;2023-02-18T01:27:33;18.93;;;8.80;;
5608;SDS011;2826;51.354;9.588;2023-02-18T01:30:00;21.27;;;7.70;;
5608;SDS011;2826;51.354;9.588;2023-02-18T01:32:27;24.87;;;8.53;;
5608;SDS011;2826;51.354;9.588;2023-02-18T01:34:53;16.83;;;8.20;;
5608;SDS011;2826;51.354;9.588;2023-02-18T01:37:21;16.97;;;8.10;;
5608;SDS011;2826;51.354;9.588;2023-02-18T01:39:49;15.60;;;8.53;;
5608;SDS011;2826;51.354;9.588;2023-02-18T01:42:19;18.13;;;8.80;;
5608;SDS011;2826;51.354;9.588;2023-02-18T01:44:48;30.37;;;9.50;;
5608;SDS011;2826;51.354;9.588;2023-02-18T01:47:16;21.47;;;9.90;;
5608;SDS011;2826;51.354;9.588;2023-02-18T01:49:44;22.00;;;8.67;;
5608;SDS011;2826;51.354;9.588;2023-02-18T01:52:14;19.30;;;8.63;;
5608;SDS011;2826;51.354;9.588;2023-02-18T01:54:44;24.20;;;8.67;;
5608;SDS011;2826;51.354;9.588;2023-02-18T01:57:15;16.97;;;8.73;;
5608;SDS011;2826;51.354;9.588;2023-02-18T01:59:47;17.83;;;9.17;;
5608;SDS011;2826;51.354;9.588;2023-02-18T02:02:19;20.33;;;9.20;;
5608;SDS011;2826;51.354;9.588;2023-02-18T02:04:47;24.07;;;9.20;;
5608;SDS011;2826;51.354;9.588;2023-02-18T02:07:14;14.53;;;7.80;;
5608;SDS011;2826;51.354;9.588;2023-02-18T02:09:44;16.87;;;8.70;;
5608;SDS011;2826;51.354;9.588;2023-02-18T02:12:26;19.87;;;8.50;;
5608;SDS011;2826;51.354;9.588;2023-02-18T02:15:14;12.93;;;7.80;;
5608;SDS011;2826;51.354;9.588;2023-02-18T02:17:51;23.50;;;8.67;;
5608;SDS011;2826;51.354;9.588;2023-02-18T02:20:33;19.10;;;8.37;;
5608;SDS011;2826;51.354;9.588;2023-02-18T02:23:18;22.03;;;8.50;;
5608;SDS011;2826;51.354;9.588;2023-02-18T02:26:12;22.97;;;8.20;;
5608;SDS011;2826;51.354;9.588;2023-02-18T02:29:00;17.30;;;8.57;;
5608;SDS011;2826;51.354;9.588;2023-02-18T02:31:57;17.60;;;8.03;;
5608;SDS011;2826;51.354;9.588;2023-02-18T02:34:35;20.60;;;8.50;;
5608;SDS011;2826;51.354;9.588;2023-02-18T02:37:09;20.03;;;8.90;;
5608;SDS011;2826;51.354;9.588;2023-02-18T02:39:42;14.50;;;7.73;;
5608;SDS011;2826;51.354;9.588;2023-02-18T02:42:17;22.83;;;8.83;;
5608;SDS011;2826;51.354;9.588;2023-02-18T02:44:53;19.57;;;8.07;;
5608;SDS011;2826;51.354;9.588;2023-02-18T02:47:25;21.60;;;8.80;;
5608;SDS011;2826;51.354;9.588;2023-02-18T02:49:59;21.67;;;8.87;;
5608;SDS011;2826;51.354;9.588;2023-02-18T02:52:30;22.30;;;9.10;;
5608;SDS011;2826;51.354;9.588;2023-02-18T02:54:59;16.20;;;8.90;;
5608;SDS011;2826;51.354;9.588;2023-02-18T02:57:45;21.40;;;8.40;;
5608;SDS011;2826;51.354;9.588;2023-02-18T03:00:20;17.27;;;8.57;;
5608;SDS011;2826;51.354;9.588;2023-02-18T03:03:00;26.03;;;8.60;;
5608;SDS011;2826;51.354;9.588;2023-02-18T03:05:45;27.03;;;8.50;;
5608;SDS011;2826;51.354;9.588;2023-02-18T03:08:27;26.40;;;10.10;;
5608;SDS011;2826;51.354;9.588;2023-02-18T03:11:03;15.40;;;9.03;;
5608;SDS011;2826;51.354;9.588;2023-02-18T03:13:46;19.53;;;9.27;;
5608;SDS011;2826;51.354;9.588;2023-02-18T03:16:26;23.93;;;9.23;;
5608;SDS011;2826;51.354;9.588;2023-02-18T03:19:00;23.57;;;10.87;;
5608;SDS011;2826;51.354;9.588;2023-02-18T03:21:34;25.50;;;10.60;;
5608;SDS011;2826;51.354;9.588;2023-02-18T03:24:06;21.40;;;10.80;;
5608;SDS011;2826;51.354;9.588;2023-02-18T03:26:36;26.20;;;11.20;;
5608;SDS011;2826;51.354;9.588;2023-02-18T03:29:08;24.43;;;11.90;;
5608;SDS011;2826;51.354;9.588;2023-02-18T03:31:37;31.77;;;13.77;;
5608;SDS011;2826;51.354;9.588;2023-02-18T03:34:08;29.67;;;11.80;;
5608;SDS011;2826;51.354;9.588;2023-02-18T03:36:38;23.93;;;12.17;;
5608;SDS011;2826;51.354;9.588;2023-02-18T03:39:06;31.40;;;13.67;;
5608;SDS011;2826;51.354;9.588;2023-02-18T03:41:35;30.20;;;13.57;;
5608;SDS011;2826;51.354;9.588;2023-02-18T03:44:05;26.00;;;12.53;;
5608;SDS011;2826;51.354;9.588;2023-02-18T03:46:33;23.80;;;11.40;;
5608;SDS011;2826;51.354;9.588;2023-02-18T03:49:02;23.70;;;11.50;;
5608;SDS011;2826;51.354;9.588;2023-02-18T03:51:29;17.37;;;8.70;;
5608;SDS011;2826;51.354;9.588;2023-02-18T03:53:56;29.13;;;11.60;;
5608;SDS011;2826;51.354;9.588;2023-02-18T03:56:23;20.20;;;10.63;;
5608;SDS011;2826;51.354;9.588;2023-02-18T03:58:50;26.40;;;13.33;;
5608;SDS011;2826;51.354;9.588;2023-02-18T04:01:17;22.80;;;13.37;;
5608;SDS011;2826;51.354;9.588;2023-02-18T04:03:43;27.67;;;14.50;;
5608;SDS011;2826;51.354;9.588;2023-02-18T04:06:10;28.00;;;13.70;;
5608;SDS011;2826;51.354;9.588;2023-02-18T04:08:37;28.53;;;13.27;;
5608;SDS011;2826;51.354;9.588;2023-02-18T04:11:05;26.63;;;13.67;;
5608;SDS011;2826;51.354;9.588;2023-02-18T04:13:32;31.90;;;15.83;;
5608;SDS011;2826;51.354;9.588;2023-02-18T04:15:58;21.20;;;11.00;;
5608;SDS011;2826;51.354;9.588;2023-02-18T04:18:25;26.93;;;13.40;;
5608;SDS011;2826;51.354;9.588;2023-02-18T04:20:52;27.50;;;14.33;;
5608;SDS011;2826;51.354;9.588;2023-02-18T04:23:18;24.60;;;13.77;;
5608;SDS011;2826;51.354;9.588;2023-02-18T04:25:45;29.67;;;13.80;;
5608;SDS011;2826;51.354;9.588;2023-02-18T04:28:13;26.80;;;12.97;;
5608;SDS011;2826;51.354;9.588;2023-02-18T04:30:42;26.80;;;13.20;;
5608;SDS011;2826;51.354;9.588;2023-02-18T04:33:09;28.97;;;13.13;;
5608;SDS011;2826;51.354;9.588;2023-02-18T04:35:36;22.87;;;12.77;;
5608;SDS011;2826;51.354;9.588;2023-02-18T04:38:04;25.20;;;13.90;;
5608;SDS011;2826;51.354;9.588;2023-02-18T04:40:33;22.00;;;12.10;;
5608;SDS011;2826;51.354;9.588;2023-02-18T04:43:00;26.37;;;14.53;;
5608;SDS011;2826;51.354;9.588;2023-02-18T04:45:28;29.77;;;13.53;;
5608;SDS011;2826;51.354;9.588;2023-02-18T04:47:55;23.83;;;13.00;;
5608;SDS011;2826;51.354;9.588;2023-02-18T04:50:22;20.23;;;12.03;;
5608;SDS011;2826;51.354;9.588;2023-02-18T04:52:49;25.50;;;13.30;;
5608;SDS011;2826;51.354;9.588;2023-02-18T04:55:15;24.30;;;12.57;;
5608;SDS011;2826;51.354;9.588;2023-02-18T04:57:42;21.50;;;11.63;;
5608;SDS011;2826;51.354;9.588;2023-02-18T05:00:09;27.13;;;14.00;;
5608;SDS011;2826;51.354;9.588;2023-02-18T05:02:42;22.57;;;12.97;;
5608;SDS011;2826;51.354;9.588;2023-02-18T05:05:09;21.13;;;11.57;;
5608;SDS011;2826;51.354;9.588;2023-02-18T05:07:36;20.03;;;9.97;;
5608;SDS011;2826;51.354;9.588;2023-02-18T05:10:03;17.23;;;10.00;;
5608;SDS011;2826;51.354;9.588;2023-02-18T05:12:30;19.73;;;11.00;;
5608;SDS011;2826;51.354;9.588;2023-02-18T05:14:57;25.90;;;12.10;;
5608;SDS011;2826;51.354;9.588;2023-02-18T05:17:23;22.13;;;10.83;;
5608;SDS011;2826;51.354;9.588;2023-02-18T05:19:51;22.60;;;10.83;;
5608;SDS011;2826;51.354;9.588;2023-02-18T05:22:18;20.70;;;10.93;;
5608;SDS011;2826;51.354;9.588;2023-02-18T05:24:44;16.53;;;9.90;;
5608;SDS011;2826;51.354;9.588;2023-02-18T05:27:11;22.03;;;11.73;;
5608;SDS011;2826;51.354;9.588;2023-02-18T05:29:37;19.77;;;11.60;;
5608;SDS011;2826;51.354;9.588;2023-02-18T05:32:04;17.70;;;11.60;;
5608;SDS011;2826;51.354;9.588;2023-02-18T05:34:31;28.40;;;13.60;;
5608;SDS011;2826;51.354;9.588;2023-02-18T05:36:59;19.70;;;11.27;;
5608;SDS011;2826;51.354;9.588;2023-02-18T05:39:25;16.77;;;10.10;;
5608;SDS011;2826;51.354;9.588;2023-02-18T05:41:52;23.30;;;12.27;;
5608;SDS011;2826;51.354;9.588;2023-02-18T05:44:19;23.43;;;12.90;;
5608;SDS011;2826;51.354;9.588;2023-02-18T05:46:58;18.07;;;10.67;;
5608;SDS011;2826;51.354;9.588;2023-02-18T05:49:25;19.10;;;11.33;;
5608;SDS011;2826;51.354;9.588;2023-02-18T05:51:52;17.10;;;9.47;;
5608;SDS011;2826;51.354;9.588;2023-02-18T05:54:20;17.57;;;10.07;;
5608;SDS011;2826;51.354;9.588;2023-02-18T05:56:47;15.63;;;10.30;;
5608;SDS011;2826;51.354;9.588;2023-02-18T05:59:13;15.07;;;9.43;;
5608;SDS011;2826;51.354;9.588;2023-02-18T06:01:40;17.43;;;9.00;;
5608;SDS011;2826;51.354;9.588;2023-02-18T06:04:06;13.30;;;9.07;;
5608;SDS011;2826;51.354;9.588;2023-02-18T06:06:34;12.73;;;8.83;;
5608;SDS011;2826;51.354;9.588;2023-02-18T06:09:01;13.33;;;7.17;;
5608;SDS011;2826;51.354;9.588;2023-02-18T06:11:29;12.10;;;7.53;;
5608;SDS011;2826;51.354;9.588;2023-02-18T06:13:55;14.97;;;8.83;;
5608;SDS011;2826;51.354;9.588;2023-02-18T06:16:22;12.77;;;8.03;;
5608;SDS011;2826;51.354;9.588;2023-02-18T06:18:49;9.20;;;6.37;;
5608;SDS011;2826;51.354;9.588;2023-02-18T06:21:16;9.40;;;6.10;;
5608;SDS011;2826;51.354;9.588;2023-02-18T06:23:42;8.50;;;5.73;;
5608;SDS011;2826;51.354;9.588;2023-02-18T06:26:09;8.10;;;5.67;;
5608;SDS011;2826;51.354;9.588;2023-02-18T06:28:37;6.63;;;4.83;;
5608;SDS011;2826;51.354;9.588;2023-02-18T06:31:03;6.07;;;4.70;;
5608;SDS011;2826;51.354;9.588;2023-02-18T06:33:30;5.70;;;4.10;;
5608;SDS011;2826;51.354;9.588;2023-02-18T06:35:57;5.53;;;4.53;;
5608;SDS011;2826;51.354;9.588;2023-02-18T06:38:26;5.57;;;3.83;;
5608;SDS011;2826;51.354;9.588;2023-02-18T06:40:53;10.17;;;3.90;;
5608;SDS011;2826;51.354;9.588;2023-02-18T06:43:20;5.93;;;3.93;;
5608;SDS011;2826;51.354;9.588;2023-02-18T06:45:48;5.53;;;3.87;;
5608;SDS011;2826;51.354;9.588;2023-02-18T06:48:15;6.10;;;4.83;;
5608;SDS011;2826;51.354;9.588;2023-02-18T06:50:42;7.97;;;4.53;;
5608;SDS011;2826;51.354;9.588;2023-02-18T06:53:09;3.60;;;2.47;;
5608;SDS011;2826;51.354;9.588;2023-02-18T06:55:36;3.30;;;2.97;;
5608;SDS011;2826;51.354;9.588;2023-02-18T06:58:03;5.73;;;4.13;;
5608;SDS011;2826;51.354;9.588;2023-02-18T07:00:30;4.93;;;4.17;;
5608;SDS011;2826;51.354;9.588;2023-02-18T07:02:58;4.50;;;3.97;;
5608;SDS011;2826;51.354;9.588;2023-02-18T07:05:24;3.90;;;2.53;;
5608;SDS011;2826;51.354;9.588;2023-02-18T07:07:51;4.40;;;3.57;;
5608;SDS011;2826;51.354;9.588;2023-02-18T07:10:18;4.33;;;3.43;;
5608;SDS011;2826;51.354;9.588;2023-02-18T07:12:45;4.30;;;3.80;;
5608;SDS011;2826;51.354;9.588;2023-02-18T07:15:11;3.70;;;3.27;;
5608;SDS011;2826;51.354;9.588;2023-02-18T07:17:38;4.50;;;3.30;;
5608;SDS011;2826;51.354;9.588;2023-02-18T07:20:07;3.60;;;3.07;;
5608;SDS011;2826;51.354;9.588;2023-02-18T07:22:35;4.67;;;3.13;;
5608;SDS011;2826;51.354;9.588;2023-02-18T07:25:01;3.53;;;2.80;;
5608;SDS011;2826;51.354;9.588;2023-02-18T07:27:28;3.50;;;3.17;;
5608;SDS011;2826;51.354;9.588;2023-02-18T07:29:55;5.23;;;3.50;;
5608;SDS011;2826;51.354;9.588;2023-02-18T07:32:21;4.73;;;3.87;;
5608;SDS011;2826;51.354;9.588;2023-02-18T07:34:49;3.17;;;2.90;;
5608;SDS011;2826;51.354;9.588;2023-02-18T07:37:17;6.83;;;3.60;;
5608;SDS011;2826;51.354;9.588;2023-02-18T07:39:44;4.07;;;3.50;;
5608;SDS011;2826;51.354;9.588;2023-02-18T07:42:11;8.90;;;3.47;;
5608;SDS011;2826;51.354;9.588;2023-02-18T07:44:38;5.53;;;3.60;;
5608;SDS011;2826;51.354;9.588;2023-02-18T07:47:05;3.03;;;2.73;;
5608;SDS011;2826;51.354;9.588;2023-02-18T07:49:33;4.87;;;3.60;;
5608;SDS011;2826;51.354;9.588;2023-02-18T07:52:00;3.70;;;3.20;;
5608;SDS011;2826;51.354;9.588;2023-02-18T07:54:28;3.23;;;2.93;;
5608;SDS011;2826;51.354;9.588;2023-02-18T07:56:55;3.17;;;2.87;;
5608;SDS011;2826;51.354;9.588;2023-02-18T07:59:21;3.10;;;2.83;;
5608;SDS011;2826;51.354;9.588;2023-02-18T08:01:48;5.50;;;2.70;;
5608;SDS011;2826;51.354;9.588;2023-02-18T08:04:14;2.80;;;2.60;;
5608;SDS011;2826;51.354;9.588;2023-02-18T08:06:42;6.10;;;3.10;;
5608;SDS011;2826;51.354;9.588;2023-02-18T08:09:10;6.60;;;2.47;;
5608;SDS011;2826;51.354;9.588;2023-02-18T08:11:39;3.50;;;2.20;;
5608;SDS011;2826;51.354;9.588;2023-02-18T08:14:05;2.87;;;2.67;;
5608;SDS011;2826;51.354;9.588;2023-02-18T08:16:32;4.17;;;2.67;;
5608;SDS011;2826;51.354;9.588;2023-02-18T08:18:59;2.53;;;2.30;;
5608;SDS011;2826;51.354;9.588;2023-02-18T08:21:27;3.77;;;2.37;;
5608;SDS011;2826;51.354;9.588;2023-02-18T08:23:56;11.10;;;2.10;;
5608;SDS011;2826;51.354;9.588;2023-02-18T08:26:23;1.93;;;1.83;;
5608;SDS011;2826;51.354;9.588;2023-02-18T08:28:51;3.13;;;2.00;;
5608;SDS011;2826;51.354;9.588;2023-02-18T08:31:18;3.57;;;2.70;;
5608;SDS011;2826;51.354;9.588;2023-02-18T08:33:46;3.70;;;2.67;;
5608;SDS011;2826;51.354;9.588;2023-02-18T08:36:13;1.90;;;1.80;;
5608;SDS011;2826;51.354;9.588;2023-02-18T08:38:40;7.43;;;2.70;;
5608;SDS011;2826;51.354;9.588;2023-02-18T08:41:07;3.60;;;1.90;;
5608;SDS011;2826;51.354;9.588;2023-02-18T08:43:34;2.13;;;1.90;;
5608;SDS011;2826;51.354;9.588;2023-02-18T08:46:02;6.10;;;2.60;;
5608;SDS011;2826;51.354;9.588;2023-02-18T08:48:29;5.70;;;1.67;;
5608;SDS011;2826;51.354;9.588;2023-02-18T08:50:56;3.27;;;2.10;;
5608;SDS011;2826;51.354;9.588;2023-02-18T08:53:23;2.00;;;1.63;;
5608;SDS011;2826;51.354;9.588;2023-02-18T08:55:49;2.17;;;1.90;;
5608;SDS011;2826;51.354;9.588;2023-02-18T08:58:16;3.80;;;2.53;;
5608;SDS011;2826;51.354;9.588;2023-02-18T09:00:43;2.07;;;1.80;;
5608;SDS011;2826;51.354;9.588;2023-02-18T09:03:13;2.20;;;1.97;;
5608;SDS011;2826;51.354;9.588;2023-02-18T09:05:40;4.73;;;2.63;;
5608;SDS011;2826;51.354;9.588;2023-02-18T09:08:07;2.33;;;2.13;;
5608;SDS011;2826;51.354;9.588;2023-02-18T09:10:34;1.90;;;1.80;;
5608;SDS011;2826;51.354;9.588;2023-02-18T09:13:00;2.27;;;1.67;;
5608;SDS011;2826;51.354;9.588;2023-02-18T09:15:27;3.50;;;2.43;;
5608;SDS011;2826;51.354;9.588;2023-02-18T09:17:54;2.73;;;2.10;;
5608;SDS011;2826;51.354;9.588;2023-02-18T09:20:22;2.20;;;1.93;;
5608;SDS011;2826;51.354;9.588;2023-02-18T09:22:49;2.30;;;2.07;;
5608;SDS011;2826;51.354;9.588;2023-02-18T09:25:15;5.90;;;2.60;;
5608;SDS011;2826;51.354;9.588;2023-02-18T09:27:42;7.93;;;1.93;;
5608;SDS011;2826;51.354;9.588;2023-02-18T09:30:09;2.03;;;1.83;;
5608;SDS011;2826;51.354;9.588;2023-02-18T09:32:36;2.50;;;2.03;;
5608;SDS011;2826;51.354;9.588;2023-02-18T09:35:03;2.20;;;2.00;;
5608;SDS011;2826;51.354;9.588;2023-02-18T09:37:31;2.83;;;2.50;;
5608;SDS011;2826;51.354;9.588;2023-02-18T09:39:58;3.07;;;2.77;;
5608;SDS011;2826;51.354;9.588;2023-02-18T09:42:26;8.53;;;5.10;;
5608;SDS011;2826;51.354;9.588;2023-02-18T09:44:57;10.73;;;6.70;;
5608;SDS011;2826;51.354;9.588;2023-02-18T09:47:28;3.97;;;3.10;;
5608;SDS011;2826;51.354;9.588;2023-02-18T09:49:58;3.87;;;2.90;;
5608;SDS011;2826;51.354;9.588;2023-02-18T09:52:31;6.27;;;2.90;;
5608;SDS011;2826;51.354;9.588;2023-02-18T09:55:09;3.60;;;2.53;;
5608;SDS011;2826;51.354;9.588;2023-02-18T09:57:41;1.73;;;1.63;;
5608;SDS011;2826;51.354;9.588;2023-02-18T10:00:13;1.20;;;1.10;;
5608;SDS011;2826;51.354;9.588;2023-02-18T10:02:45;1.10;;;1.00;;
5608;SDS011;2826;51.354;9.588;2023-02-18T10:05:19;2.90;;;1.50;;
5608;SDS011;2826;51.354;9.588;2023-02-18T10:07:47;1.00;;;0.90;;
5608;SDS011;2826;51.354;9.588;2023-02-18T10:10:18;1.20;;;0.80;;
5608;SDS011;2826;51.354;9.588;2023-02-18T10:12:50;1.10;;;1.00;;
5608;SDS011;2826;51.354;9.588;2023-02-18T10:15:19;1.20;;;1.10;;
5608;SDS011;2826;51.354;9.588;2023-02-18T10:17:47;2.17;;;1.67;;
5608;SDS011;2826;51.354;9.588;2023-02-18T10:20:16;1.73;;;1.00;;
5608;SDS011;2826;51.354;9.588;2023-02-18T10:22:50;0.98;;;0.73;;
5608;SDS011;2826;51.354;9.588;2023-02-18T10:25:19;2.50;;;1.20;;
5608;SDS011;2826;51.354;9.588;2023-02-18T10:27:48;1.40;;;1.30;;
5608;SDS011;2826;51.354;9.588;2023-02-18T10:30:21;2.23;;;0.90;;
5608;SDS011;2826;51.354;9.588;2023-02-18T10:32:51;1.33;;;1.20;;
5608;SDS011;2826;51.354;9.588;2023-02-18T10:35:23;0.80;;;0.73;;
5608;SDS011;2826;51.354;9.588;2023-02-18T10:37:59;1.93;;;1.10;;
5608;SDS011;2826;51.354;9.588;2023-02-18T10:40:34;1.47;;;0.80;;
5608;SDS011;2826;51.354;9.588;2023-02-18T10:43:15;1.10;;;0.90;;
5608;SDS011;2826;51.354;9.588;2023-02-18T10:45:52;1.37;;;1.27;;
5608;SDS011;2826;51.354;9.588;2023-02-18T10:48:27;1.50;;;1.40;;
5608;SDS011;2826;51.354;9.588;2023-02-18T10:51:11;1.10;;;1.00;;
5608;SDS011;2826;51.354;9.588;2023-02-18T10:53:43;1.50;;;1.40;;
5608;SDS011;2826;51.354;9.588;2023-02-18T10:56:28;1.10;;;1.00;;
5608;SDS011;2826;51.354;9.588;2023-02-18T10:59:00;1.83;;;1.60;;
5608;SDS011;2826;51.354;9.588;2023-02-18T11:01:30;1.63;;;1.20;;
5608;SDS011;2826;51.354;9.588;2023-02-18T11:04:04;1.43;;;1.33;;
5608;SDS011;2826;51.354;9.588;2023-02-18T11:06:40;1.77;;;1.50;;
5608;SDS011;2826;51.354;9.588;2023-02-18T11:09:29;2.37;;;1.30;;
5608;SDS011;2826;51.354;9.588;2023-02-18T11:12:05;1.50;;;1.20;;
5608;SDS011;2826;51.354;9.588;2023-02-18T11:14:40;1.23;;;1.13;;
5608;SDS011;2826;51.354;9.588;2023-02-18T11:17:12;5.13;;;1.10;;
5608;SDS011;2826;51.354;9.588;2023-02-18T11:19:45;1.47;;;1.00;;
5608;SDS011;2826;51.354;9.588;2023-02-18T11:22:19;1.03;;;0.93;;
5608;SDS011;2826;51.354;9.588;2023-02-18T11:24:54;4.90;;;1.20;;
5608;SDS011;2826;51.354;9.588;2023-02-18T11:27:23;0.97;;;0.90;;
5608;SDS011;2826;51.354;9.588;2023-02-18T11:29:55;1.20;;;1.10;;
5608;SDS011;2826;51.354;9.588;2023-02-18T11:32:27;1.10;;;1.00;;
5608;SDS011;2826;51.354;9.588;2023-02-18T11:34:55;1.63;;;1.17;;
5608;SDS011;2826;51.354;9.588;2023-02-18T11:37:22;1.90;;;1.20;;
5608;SDS011;2826;51.354;9.588;2023-02-18T11:39:50;2.17;;;1.40;;
5608;SDS011;2826;51.354;9.588;2023-02-18T11:42:21;4.30;;;1.57;;
5608;SDS011;2826;51.354;9.588;2023-02-18T11:44:51;1.17;;;1.07;;
5608;SDS011;2826;51.354;9.588;2023-02-18T11:47:21;1.40;;;1.10;;
5608;SDS011;2826;51.354;9.588;2023-02-18T11:49:58;1.40;;;1.10;;
5608;SDS011;2826;51.354;9.588;2023-02-18T11:52:42;5.57;;;1.30;;
5608;SDS011;2826;51.354;9.588;2023-02-18T11:55:15;1.70;;;1.60;;
5608;SDS011;2826;51.354;9.588;2023-02-18T11:57:44;2.30;;;1.67;;
5608;SDS011;2826;51.354;9.588;2023-02-18T12:00:15;1.87;;;1.50;;
5608;SDS011;2826;51.354;9.588;2023-02-18T12:02:47;1.73;;;1.50;;
5608;SDS011;2826;51.354;9.588;2023-02-18T12:05:15;1.93;;;1.50;;
5608;SDS011;2826;51.354;9.588;2023-02-18T12:07:47;3.57;;;1.30;;
5608;SDS011;2826;51.354;9.588;2023-02-18T12:10:20;1.87;;;1.60;;
5608;SDS011;2826;51.354;9.588;2023-02-18T12:12:51;1.77;;;1.67;;
5608;SDS011;2826;51.354;9.588;2023-02-18T12:15:25;1.67;;;1.53;;
5608;SDS011;2826;51.354;9.588;2023-02-18T12:18:08;3.73;;;1.83;;
5608;SDS011;2826;51.354;9.588;2023-02-18T12:21:05;1.53;;;1.43;;
5608;SDS011;2826;51.354;9.588;2023-02-18T12:23:41;4.43;;;1.87;;
5608;SDS011;2826;51.354;9.588;2023-02-18T12:26:22;4.10;;;1.90;;
5608;SDS011;2826;51.354;9.588;2023-02-18T12:29:00;2.57;;;2.00;;
5608;SDS011;2826;51.354;9.588;2023-02-18T12:31:41;2.40;;;1.67;;
5608;SDS011;2826;51.354;9.588;2023-02-18T12:34:25;4.53;;;2.40;;
5608;SDS011;2826;51.354;9.588;2023-02-18T12:37:07;3.33;;;1.57;;
5608;SDS011;2826;51.354;9.588;2023-02-18T12:39:56;2.97;;;2.30;;
5608;SDS011;2826;51.354;9.588;2023-02-18T12:42:47;5.77;;;2.27;;
5608;SDS011;2826;51.354;9.588;2023-02-18T12:45:28;1.97;;;1.77;;
5608;SDS011;2826;51.354;9.588;2023-02-18T12:48:10;2.10;;;1.27;;
5608;SDS011;2826;51.354;9.588;2023-02-18T12:50:54;3.70;;;1.70;;
5608;SDS011;2826;51.354;9.588;2023-02-18T12:53:35;2.70;;;1.40;;
5608;SDS011;2826;51.354;9.588;2023-02-18T12:56:22;1.60;;;1.50;;
5608;SDS011;2826;51.354;9.588;2023-02-18T12:59:04;1.70;;;1.40;;
5608;SDS011;2826;51.354;9.588;2023-02-18T13:01:41;1.30;;;1.10;;
5608;SDS011;2826;51.354;9.588;2023-02-18T13:07:16;2.07;;;1.87;;
5608;SDS011;2826;51.354;9.588;2023-02-18T13:13:10;1.20;;;1.10;;
5608;SDS011;2826;51.354;9.588;2023-02-18T13:15:42;1.70;;;1.60;;
5608;SDS011;2826;51.354;9.588;2023-02-18T13:18:14;2.07;;;1.07;;
5608;SDS011;2826;51.354;9.588;2023-02-18T13:20:47;1.30;;;1.20;;
5608;SDS011;2826;51.354;9.588;2023-02-18T13:23:17;3.03;;;1.30;;
5608;SDS011;2826;51.354;9.588;2023-02-18T13:25:46;1.30;;;0.90;;
5608;SDS011;2826;51.354;9.588;2023-02-18T13:28:20;1.43;;;1.20;;
5608;SDS011;2826;51.354;9.588;2023-02-18T13:31:04;1.90;;;1.43;;
5608;SDS011;2826;51.354;9.588;2023-02-18T13:33:43;1.47;;;1.30;;
5608;SDS011;2826;51.354;9.588;2023-02-18T13:36:19;1.00;;;0.90;;
5608;SDS011;2826;51.354;9.588;2023-02-18T13:38:59;3.80;;;1.30;;
5608;SDS011;2826;51.354;9.588;2023-02-18T13:41:33;1.83;;;1.00;;
5608;SDS011;2826;51.354;9.588;2023-02-18T13:44:06;1.20;;;1.10;;
5608;SDS011;2826;51.354;9.588;2023-02-18T13:46:41;0.80;;;0.70;;
5608;SDS011;2826;51.354;9.588;2023-02-18T13:49:19;1.03;;;0.93;;
5608;SDS011;2826;51.354;9.588;2023-02-18T13:51:47;1.23;;;0.90;;
5608;SDS011;2826;51.354;9.588;2023-02-18T13:54:17;1.90;;;1.10;;
5608;SDS011;2826;51.354;9.588;2023-02-18T13:56:50;1.37;;;1.03;;
5608;SDS011;2826;51.354;9.588;2023-02-18T13:59:21;1.00;;;0.90;;
5608;SDS011;2826;51.354;9.588;2023-02-18T14:01:55;1.10;;;0.90;;
5608;SDS011;2826;51.354;9.588;2023-02-18T14:04:50;1.93;;;1.20;;
5608;SDS011;2826;51.354;9.588;2023-02-18T14:10:24;1.17;;;1.07;;
5608;SDS011;2826;51.354;9.588;2023-02-18T14:15:47;1.67;;;0.73;;
5608;SDS011;2826;51.354;9.588;2023-02-18T14:18:36;0.80;;;0.67;;
5608;SDS011;2826;51.354;9.588;2023-02-18T14:21:35;1.50;;;0.87;;
5608;SDS011;2826;51.354;9.588;2023-02-18T14:24:03;1.30;;;1.20;;
5608;SDS011;2826;51.354;9.588;2023-02-18T14:26:33;1.90;;;0.77;;
5608;SDS011;2826;51.354;9.588;2023-02-18T14:29:06;0.80;;;0.80;;
5608;SDS011;2826;51.354;9.588;2023-02-18T14:31:40;1.00;;;0.90;;
5608;SDS011;2826;51.354;9.588;2023-02-18T14:34:20;1.10;;;0.80;;
5608;SDS011;2826;51.354;9.588;2023-02-18T14:37:15;1.47;;;0.90;;
5608;SDS011;2826;51.354;9.588;2023-02-18T14:39:59;1.70;;;0.90;;
5608;SDS011;2826;51.354;9.588;2023-02-18T14:42:37;2.30;;;0.70;;
5608;SDS011;2826;51.354;9.588;2023-02-18T14:45:14;1.10;;;1.00;;
5608;SDS011;2826;51.354;9.588;2023-02-18T14:47:53;1.63;;;1.00;;
5608;SDS011;2826;51.354;9.588;2023-02-18T14:50:37;1.20;;;1.00;;
5608;SDS011;2826;51.354;9.588;2023-02-18T14:53:10;2.30;;;1.30;;
5608;SDS011;2826;51.354;9.588;2023-02-18T14:55:43;1.00;;;0.90;;
5608;SDS011;2826;51.354;9.588;2023-02-18T14:58:16;1.07;;;0.97;;
5608;SDS011;2826;51.354;9.588;2023-02-18T15:00:52;2.50;;;1.73;;
5608;SDS011;2826;51.354;9.588;2023-02-18T15:03:19;1.20;;;1.07;;
5608;SDS011;2826;51.354;9.588;2023-02-18T15:05:48;1.30;;;1.20;;
5608;SDS011;2826;51.354;9.588;2023-02-18T15:08:16;1.30;;;1.20;;
5608;SDS011;2826;51.354;9.588;2023-02-18T15:10:45;1.20;;;1.10;;
5608;SDS011;2826;51.354;9.588;2023-02-18T15:13:16;1.20;;;1.00;;
5608;SDS011;2826;51.354;9.588;2023-02-18T15:15:46;5.00;;;1.03;;
5608;SDS011;2826;51.354;9.588;2023-02-18T15:18:17;1.97;;;1.23;;
5608;SDS011;2826;51.354;9.588;2023-02-18T15:20:50;1.33;;;1.23;;
5608;SDS011;2826;51.354;9.588;2023-02-18T15:23:17;1.10;;;0.93;;
5608;SDS011;2826;51.354;9.588;2023-02-18T15:25:44;1.30;;;1.07;;
5608;SDS011;2826;51.354;9.588;2023-02-18T15:28:22;0.80;;;0.80;;
5608;SDS011;2826;51.354;9.588;2023-02-18T15:30:50;1.00;;;0.90;;
5608;SDS011;2826;51.354;9.588;2023-02-18T15:33:18;1.00;;;0.90;;
5608;SDS011;2826;51.354;9.588;2023-02-18T15:35:45;1.10;;;1.00;;
5608;SDS011;2826;51.354;9.588;2023-02-18T15:38:14;1.20;;;0.90;;
5608;SDS011;2826;51.354;9.588;2023-02-18T15:40:43;1.00;;;0.90;;
5608;SDS011;2826;51.354;9.588;2023-02-18T15:43:14;1.33;;;1.23;;